createdAt,value
2018-11-25T00:00:27.466Z,2.90
2018-11-25T00:02:56.702Z,2.80
2018-11-25T00:05:26.132Z,2.80
2018-11-25T00:07:55.520Z,2.80
2018-11-25T00:10:24.851Z,2.80
2018-11-25T00:12:54.213Z,2.80
2018-11-25T00:15:24.065Z,2.80
2018-11-25T00:17:53.344Z,2.80
2018-11-25T00:20:22.594Z,2.80
2018-11-25T00:22:58.495Z,2.80
2018-11-25T00:25:27.778Z,2.80
2018-11-25T00:27:57.084Z,2.80
2018-11-25T00:30:26.305Z,2.80
2018-11-25T00:32:55.602Z,2.80
2018-11-25T00:35:24.873Z,2.80
2018-11-25T00:37:54.115Z,2.70
2018-11-25T00:40:24.189Z,2.70
2018-11-25T00:42:53.424Z,2.70
2018-11-25T00:45:22.722Z,2.70
2018-11-25T00:47:52.800Z,2.70
2018-11-25T00:50:22.076Z,2.70
2018-11-25T00:52:51.432Z,2.70
2018-11-25T00:55:20.649Z,2.70
2018-11-25T00:57:50.074Z,2.70
2018-11-25T01:00:20.034Z,2.70
2018-11-25T01:02:50.464Z,2.70
2018-11-25T01:05:19.856Z,2.60
2018-11-25T01:07:49.092Z,2.60
2018-11-25T01:10:19.032Z,2.60
2018-11-25T01:12:48.504Z,2.70
2018-11-25T01:15:18.359Z,2.60
2018-11-25T01:17:47.653Z,2.70
2018-11-25T01:20:19.967Z,2.70
2018-11-25T01:22:49.233Z,2.70
2018-11-25T01:25:18.467Z,2.80
2018-11-25T01:27:47.809Z,2.80
2018-11-25T01:30:17.953Z,2.80
2018-11-25T01:32:47.930Z,2.80
2018-11-25T01:35:17.410Z,2.80
2018-11-25T01:37:46.613Z,2.80
2018-11-25T01:40:19.685Z,2.80
2018-11-25T01:42:48.901Z,2.90
2018-11-25T01:45:18.658Z,2.90
2018-11-25T01:47:48.134Z,2.90
2018-11-25T01:50:18.389Z,2.90
2018-11-25T01:52:48.216Z,2.90
2018-11-25T01:55:18.567Z,2.90
2018-11-25T01:57:48.569Z,2.90
2018-11-25T02:00:19.261Z,3.00
2018-11-25T02:02:48.933Z,3.00
2018-11-25T02:05:18.309Z,3.00
2018-11-25T02:07:48.304Z,3.00
2018-11-25T02:10:18.529Z,3.00
2018-11-25T02:12:48.344Z,3.10
2018-11-25T02:15:17.971Z,3.10
2018-11-25T02:17:47.192Z,3.10
2018-11-25T02:20:20.786Z,3.10
2018-11-25T02:22:50.723Z,3.10
2018-11-25T02:25:20.236Z,3.10
2018-11-25T02:27:50.083Z,3.10
2018-11-25T02:30:19.433Z,3.10
2018-11-25T02:32:49.352Z,3.10
2018-11-25T02:35:18.963Z,3.10
2018-11-25T02:37:48.224Z,3.10
2018-11-25T02:40:18.024Z,3.10
2018-11-25T02:42:47.319Z,3.10
2018-11-25T02:45:17.650Z,3.10
2018-11-25T02:47:47.040Z,3.10
2018-11-25T02:50:33.349Z,3.10
2018-11-25T02:53:04.832Z,3.10
2018-11-25T02:55:34.065Z,3.10
2018-11-25T02:58:03.351Z,3.10
2018-11-25T03:00:32.767Z,3.10
2018-11-25T03:03:02.209Z,3.10
2018-11-25T03:05:31.572Z,3.10
2018-11-25T03:08:00.951Z,3.10
2018-11-25T03:10:30.199Z,3.10
2018-11-25T03:12:59.456Z,3.10
2018-11-25T03:15:28.703Z,3.10
2018-11-25T03:17:57.959Z,3.10
2018-11-25T03:20:27.260Z,3.10
2018-11-25T03:22:56.667Z,3.10
2018-11-25T03:25:26.080Z,3.10
2018-11-25T03:27:55.315Z,3.10
2018-11-25T03:30:24.742Z,3.10
2018-11-25T03:32:54.692Z,3.10
2018-11-25T03:35:23.976Z,3.10
2018-11-25T03:37:53.539Z,3.10
2018-11-25T03:40:22.788Z,3.10
2018-11-25T03:42:52.109Z,3.10
2018-11-25T03:45:22.126Z,3.10
2018-11-25T03:47:51.396Z,3.10
2018-11-25T03:50:20.625Z,3.10
2018-11-25T03:52:49.857Z,3.10
2018-11-25T03:55:19.215Z,3.10
2018-11-25T03:57:48.523Z,3.10
2018-11-25T04:00:21.834Z,3.10
2018-11-25T04:02:52.452Z,3.10
2018-11-25T04:05:21.730Z,3.20
2018-11-25T04:07:50.989Z,3.20
2018-11-25T04:10:20.366Z,3.20
2018-11-25T04:12:50.359Z,3.20
2018-11-25T04:15:20.148Z,3.20
2018-11-25T04:17:49.468Z,3.20
2018-11-25T04:20:19.957Z,3.30
2018-11-25T04:22:49.892Z,3.30
2018-11-25T04:25:19.313Z,3.30
2018-11-25T04:27:48.631Z,3.30
2018-11-25T04:30:19.524Z,3.20
2018-11-25T04:32:49.771Z,3.20
2018-11-25T04:35:19.183Z,3.20
2018-11-25T04:37:48.413Z,3.20
2018-11-25T04:40:18.459Z,3.20
2018-11-25T04:42:48.508Z,3.20
2018-11-25T04:45:18.330Z,3.20
2018-11-25T04:47:47.849Z,3.20
2018-11-25T04:50:19.016Z,3.30
2018-11-25T04:52:48.716Z,3.30
2018-11-25T04:55:17.975Z,3.30
2018-11-25T04:57:53.101Z,3.30
2018-11-25T05:00:22.328Z,3.30
2018-11-25T05:02:52.340Z,3.30
2018-11-25T05:05:21.570Z,3.30
2018-11-25T05:07:51.116Z,3.30
2018-11-25T05:10:20.280Z,3.30
2018-11-25T05:12:49.768Z,3.30
2018-11-25T05:15:20.469Z,3.30
2018-11-25T05:17:50.073Z,3.30
2018-11-25T05:20:20.328Z,3.30
2018-11-25T05:22:49.647Z,3.30
2018-11-25T05:25:19.880Z,3.40
2018-11-25T05:27:49.234Z,3.40
2018-11-25T05:30:20.859Z,3.40
2018-11-25T05:32:50.218Z,3.50
2018-11-25T05:35:21.427Z,3.50
2018-11-25T05:37:50.680Z,3.40
2018-11-25T05:40:20.682Z,3.50
2018-11-25T05:42:50.667Z,3.50
2018-11-25T05:45:21.306Z,3.50
2018-11-25T05:47:50.627Z,3.50
2018-11-25T05:50:20.511Z,3.50
2018-11-25T05:52:49.880Z,3.50
2018-11-25T05:55:19.105Z,3.50
2018-11-25T05:57:48.330Z,3.50
2018-11-25T06:00:21.434Z,3.60
2018-11-25T06:02:50.670Z,3.60
2018-11-25T06:05:20.610Z,3.60
2018-11-25T06:07:49.867Z,3.50
2018-11-25T06:10:19.116Z,3.60
2018-11-25T06:12:48.467Z,3.60
2018-11-25T06:15:17.837Z,3.60
2018-11-25T06:17:47.695Z,3.60
2018-11-25T06:20:18.013Z,3.60
2018-11-25T06:22:47.624Z,3.60
2018-11-25T06:25:20.170Z,3.60
2018-11-25T06:27:49.428Z,3.60
2018-11-25T06:30:21.245Z,3.70
2018-11-25T06:32:50.674Z,3.70
2018-11-25T06:35:20.443Z,3.70
2018-11-25T06:37:50.258Z,3.60
2018-11-25T06:40:20.465Z,3.70
2018-11-25T06:42:49.859Z,3.70
2018-11-25T06:45:21.629Z,3.70
2018-11-25T06:47:50.981Z,3.70
2018-11-25T06:50:21.587Z,3.70
2018-11-25T06:52:50.989Z,3.70
2018-11-25T06:55:20.229Z,3.70
2018-11-25T06:57:50.065Z,3.70
2018-11-25T07:00:22.385Z,3.70
2018-11-25T07:02:51.729Z,3.70
2018-11-25T07:05:21.667Z,3.80
2018-11-25T07:07:50.939Z,3.80
2018-11-25T07:10:21.276Z,3.80
2018-11-25T07:12:51.960Z,3.80
2018-11-25T07:15:21.238Z,3.80
2018-11-25T07:17:50.465Z,3.80
2018-11-25T07:20:19.976Z,3.80
2018-11-25T07:22:49.231Z,3.80
2018-11-25T07:25:20.611Z,3.80
2018-11-25T07:27:51.241Z,3.80
2018-11-25T07:30:26.111Z,3.80
2018-11-25T07:32:55.546Z,3.80
2018-11-25T07:35:26.040Z,3.90
2018-11-25T07:37:55.851Z,3.90
2018-11-25T07:40:25.895Z,3.90
2018-11-25T07:42:55.224Z,3.90
2018-11-25T07:45:30.576Z,3.90
2018-11-25T07:47:54.966Z,3.90
2018-11-25T07:50:24.293Z,3.90
2018-11-25T07:52:54.206Z,4.00
2018-11-25T07:55:25.714Z,4.00
2018-11-25T07:57:58.782Z,4.00
2018-11-25T08:00:28.172Z,4.00
2018-11-25T08:02:57.660Z,4.00
2018-11-25T08:05:27.835Z,4.00
2018-11-25T08:07:57.154Z,4.00
2018-11-25T08:10:26.434Z,4.00
2018-11-25T08:12:56.501Z,4.00
2018-11-25T08:16:34.557Z,4.10
2018-11-25T08:19:04.106Z,4.10
2018-11-25T08:21:33.475Z,4.10
2018-11-25T08:24:03.610Z,4.10
2018-11-25T08:26:33.048Z,4.10
2018-11-25T08:29:02.350Z,4.10
2018-11-25T08:31:31.571Z,4.20
2018-11-25T08:34:01.652Z,4.20
2018-11-25T08:36:30.882Z,4.20
2018-11-25T08:39:00.198Z,4.20
2018-11-25T08:41:29.405Z,4.20
2018-11-25T08:43:59.373Z,4.20
2018-11-25T08:46:28.723Z,4.20
2018-11-25T08:48:58.051Z,4.30
2018-11-25T08:51:27.299Z,4.30
2018-11-25T08:53:56.507Z,4.30
2018-11-25T08:56:25.837Z,4.30
2018-11-25T08:58:55.233Z,4.30
2018-11-25T09:01:25.180Z,4.30
2018-11-25T09:03:56.321Z,4.30
2018-11-25T09:06:25.594Z,4.30
2018-11-25T09:08:54.809Z,4.40
2018-11-25T09:11:27.803Z,4.30
2018-11-25T09:13:57.684Z,4.40
2018-11-25T09:16:27.289Z,4.40
2018-11-25T09:18:56.593Z,4.40
2018-11-25T09:21:26.665Z,4.40
2018-11-25T09:23:55.894Z,4.40
2018-11-25T09:26:25.229Z,4.40
2018-11-25T09:28:54.432Z,4.40
2018-11-25T09:31:23.654Z,4.50
2018-11-25T09:33:52.891Z,4.50
2018-11-25T09:36:22.358Z,4.50
2018-11-25T09:38:51.594Z,4.50
2018-11-25T09:41:20.791Z,4.50
2018-11-25T09:43:50.007Z,4.50
2018-11-25T09:46:19.892Z,4.50
2018-11-25T09:48:49.241Z,4.50
2018-11-25T09:51:18.629Z,4.60
2018-11-25T09:53:48.565Z,4.60
2018-11-25T09:56:17.765Z,4.60
2018-11-25T09:58:47.005Z,4.60
2018-11-25T10:01:16.338Z,4.60
2018-11-25T10:03:45.563Z,4.60
2018-11-25T10:06:14.890Z,4.70
2018-11-25T10:08:44.598Z,4.70
2018-11-25T10:11:13.905Z,4.80
2018-11-25T10:13:43.255Z,4.80
2018-11-25T10:16:12.523Z,4.80
2018-11-25T10:18:41.793Z,4.80
2018-11-25T10:21:11.033Z,4.80
2018-11-25T10:23:41.095Z,4.80
2018-11-25T10:26:10.320Z,4.90
2018-11-25T10:28:39.574Z,4.90
2018-11-25T10:31:08.819Z,4.90
2018-11-25T10:33:38.040Z,4.90
2018-11-25T10:36:07.990Z,5.00
2018-11-25T10:38:37.907Z,5.00
2018-11-25T10:41:07.869Z,5.10
2018-11-25T10:43:37.690Z,5.10
2018-11-25T10:46:07.679Z,5.10
2018-11-25T10:48:36.973Z,5.10
2018-11-25T10:51:06.482Z,5.10
2018-11-25T10:53:35.722Z,5.10
2018-11-25T10:56:05.482Z,5.10
2018-11-25T10:58:34.739Z,5.10
2018-11-25T11:01:09.381Z,5.10
2018-11-25T11:03:43.953Z,5.10
2018-11-25T11:06:18.644Z,5.10
2018-11-25T11:08:48.056Z,5.10
2018-11-25T11:11:17.494Z,5.10
2018-11-25T11:13:47.490Z,5.10
2018-11-25T11:16:16.875Z,5.10
2018-11-25T11:18:46.122Z,5.20
2018-11-25T11:21:15.418Z,5.20
2018-11-25T11:23:44.760Z,5.20
2018-11-25T11:26:24.436Z,5.20
2018-11-25T11:28:53.735Z,5.20
2018-11-25T11:31:23.025Z,5.20
2018-11-25T11:33:52.382Z,5.20
2018-11-25T11:36:22.893Z,5.20
2018-11-25T11:38:53.525Z,5.30
2018-11-25T11:41:22.765Z,5.20
2018-11-25T11:43:52.570Z,5.30
2018-11-25T11:46:22.667Z,5.30
2018-11-25T11:48:51.073Z,5.30
2018-11-25T11:51:25.541Z,5.30
2018-11-25T11:53:49.723Z,5.30
2018-11-25T11:56:19.113Z,5.40
2018-11-25T11:58:48.559Z,5.40
2018-11-25T12:01:18.409Z,5.40
2018-11-25T12:03:47.784Z,5.40
2018-11-25T12:06:17.149Z,5.40
2018-11-25T12:08:46.434Z,5.50
2018-11-25T12:11:15.877Z,5.50
2018-11-25T12:13:45.177Z,5.50
2018-11-25T12:16:14.565Z,5.60
2018-11-25T12:18:44.053Z,5.60
2018-11-25T12:21:13.341Z,5.60
2018-11-25T12:23:42.743Z,5.60
2018-11-25T12:26:12.052Z,5.60
2018-11-25T12:28:42.259Z,5.60
2018-11-25T12:31:11.541Z,5.60
2018-11-25T12:33:41.785Z,5.60
2018-11-25T12:36:11.181Z,5.70
2018-11-25T12:38:40.482Z,5.70
2018-11-25T12:41:10.394Z,5.70
2018-11-25T12:43:40.237Z,5.80
2018-11-25T12:46:09.521Z,5.80
2018-11-25T12:48:38.963Z,5.70
2018-11-25T12:51:08.213Z,5.70
2018-11-25T12:53:37.474Z,5.80
2018-11-25T12:56:06.754Z,5.80
2018-11-25T12:58:36.018Z,5.80
2018-11-25T13:01:05.507Z,5.70
2018-11-25T13:03:35.410Z,5.80
2018-11-25T13:06:04.707Z,5.80
2018-11-25T13:08:34.123Z,5.70
2018-11-25T13:11:04.225Z,5.70
2018-11-25T13:13:33.457Z,5.70
2018-11-25T13:16:03.466Z,5.70
2018-11-25T13:18:32.993Z,5.80
2018-11-25T13:21:02.815Z,5.80
2018-11-25T13:23:32.089Z,5.70
2018-11-25T13:26:01.384Z,5.80
2018-11-25T13:28:31.588Z,5.80
2018-11-25T13:31:01.574Z,5.80
2018-11-25T13:33:31.462Z,5.70
2018-11-25T13:36:00.862Z,5.70
2018-11-25T13:38:30.852Z,5.70
2018-11-25T13:41:00.362Z,5.70
2018-11-25T13:43:30.418Z,5.70
2018-11-25T13:45:59.816Z,5.70
2018-11-25T13:48:29.333Z,5.70
2018-11-25T13:51:06.745Z,5.70
2018-11-25T13:53:37.136Z,5.70
2018-11-25T13:56:07.128Z,5.70
2018-11-25T13:58:36.465Z,5.70
2018-11-25T14:01:06.676Z,5.70
2018-11-25T14:03:37.985Z,5.70
2018-11-25T14:06:10.358Z,5.60
2018-11-25T14:08:39.640Z,5.60
2018-11-25T14:11:11.608Z,5.70
2018-11-25T14:13:40.875Z,5.70
2018-11-25T14:16:12.884Z,5.60
2018-11-25T14:18:43.168Z,5.70
2018-11-25T14:21:12.549Z,5.60
2018-11-25T14:23:42.958Z,5.60
2018-11-25T14:26:17.733Z,5.60
2018-11-25T14:28:47.942Z,5.60
2018-11-25T14:31:17.276Z,5.60
2018-11-25T14:33:47.367Z,5.60
2018-11-25T14:36:16.817Z,5.60
2018-11-25T14:38:46.060Z,5.60
2018-11-25T14:41:15.458Z,5.60
2018-11-25T14:43:45.378Z,5.60
2018-11-25T14:46:14.646Z,5.60
2018-11-25T14:48:44.756Z,5.50
2018-11-25T14:51:14.087Z,5.50
2018-11-25T14:53:44.039Z,5.50
2018-11-25T14:56:13.308Z,5.50
2018-11-25T14:58:44.199Z,5.50
2018-11-25T15:01:14.238Z,5.50
2018-11-25T15:03:43.491Z,5.50
2018-11-25T15:06:12.790Z,5.50
2018-11-25T15:08:42.167Z,5.50
2018-11-25T15:11:11.444Z,5.50
2018-11-25T15:13:40.698Z,5.50
2018-11-25T15:16:13.792Z,5.50
2018-11-25T15:18:43.613Z,5.50
2018-11-25T15:21:14.166Z,5.50
2018-11-25T15:23:43.561Z,5.50
2018-11-25T15:26:15.134Z,5.50
2018-11-25T15:28:45.196Z,5.50
2018-11-25T15:31:15.078Z,5.40
2018-11-25T15:33:44.465Z,5.40
2018-11-25T15:36:13.760Z,5.40
2018-11-25T15:38:43.278Z,5.40
2018-11-25T15:41:12.535Z,5.40
2018-11-25T15:43:43.217Z,5.40
2018-11-25T15:46:12.442Z,5.40
2018-11-25T15:48:41.693Z,5.40
2018-11-25T15:51:11.746Z,5.40
2018-11-25T15:53:40.965Z,5.40
2018-11-25T15:56:10.717Z,5.40
2018-11-25T15:58:40.047Z,5.40
2018-11-25T16:01:09.297Z,5.40
2018-11-25T16:03:38.610Z,5.40
2018-11-25T16:06:13.957Z,5.40
2018-11-25T16:08:43.292Z,5.40
2018-11-25T16:11:12.537Z,5.40
2018-11-25T16:13:41.904Z,5.40
2018-11-25T16:16:11.387Z,5.40
2018-11-25T16:18:40.657Z,5.40
2018-11-25T16:21:09.904Z,5.40
2018-11-25T16:23:39.165Z,5.30
2018-11-25T16:26:12.540Z,5.30
2018-11-25T16:28:43.705Z,5.30
2018-11-25T16:31:12.944Z,5.20
2018-11-25T16:33:42.260Z,5.20
2018-11-25T16:36:11.602Z,5.20
2018-11-25T16:38:41.026Z,5.20
2018-11-25T16:41:10.309Z,5.20
2018-11-25T16:43:39.839Z,5.10
2018-11-25T16:46:09.269Z,5.10
2018-11-25T16:48:38.547Z,5.20
2018-11-25T16:51:07.801Z,5.20
2018-11-25T16:53:37.797Z,5.20
2018-11-25T16:56:07.086Z,5.20
2018-11-25T16:58:36.774Z,5.20
2018-11-25T17:01:10.192Z,5.20
2018-11-25T17:03:36.312Z,5.20
2018-11-25T17:06:06.958Z,5.30
2018-11-25T17:08:38.081Z,5.30
2018-11-25T17:11:08.000Z,5.30
2018-11-25T17:13:37.467Z,5.30
2018-11-25T17:16:07.720Z,5.30
2018-11-25T17:18:38.140Z,5.30
2018-11-25T17:21:07.422Z,5.20
2018-11-25T17:23:36.860Z,5.20
2018-11-25T17:26:06.396Z,5.20
2018-11-25T17:28:35.613Z,5.20
2018-11-25T17:31:04.873Z,5.30
2018-11-25T17:33:34.220Z,5.20
2018-11-25T17:36:03.537Z,5.30
2018-11-25T17:38:32.856Z,5.30
2018-11-25T17:41:02.233Z,5.30
2018-11-25T17:43:31.473Z,5.30
2018-11-25T17:46:00.854Z,5.30
2018-11-25T17:48:30.148Z,5.30
2018-11-25T17:50:59.390Z,5.30
2018-11-25T17:53:28.737Z,5.30
2018-11-25T17:55:58.193Z,5.30
2018-11-25T17:58:27.432Z,5.20
2018-11-25T18:01:02.639Z,5.30
2018-11-25T18:03:33.065Z,5.30
2018-11-25T18:06:02.390Z,5.20
2018-11-25T18:08:33.230Z,5.30
2018-11-25T18:11:02.589Z,5.20
2018-11-25T18:13:34.606Z,5.20
2018-11-25T18:16:05.295Z,5.30
2018-11-25T18:18:42.306Z,5.30
2018-11-25T18:21:14.492Z,5.30
2018-11-25T18:23:43.767Z,5.30
2018-11-25T18:26:13.135Z,5.30
2018-11-25T18:28:42.473Z,5.30
2018-11-25T18:31:12.844Z,5.30
2018-11-25T18:33:42.136Z,5.30
2018-11-25T18:36:13.673Z,5.30
2018-11-25T18:38:43.130Z,5.20
2018-11-25T18:41:12.469Z,5.20
2018-11-25T18:43:41.759Z,5.20
2018-11-25T18:46:11.026Z,5.20
2018-11-25T18:48:43.142Z,5.20
2018-11-25T18:51:12.429Z,5.20
2018-11-25T18:53:42.434Z,5.20
2018-11-25T18:56:11.672Z,5.20
2018-11-25T18:58:41.009Z,5.20
2018-11-25T19:01:18.049Z,5.30
2018-11-25T19:03:47.322Z,5.20
2018-11-25T19:06:16.600Z,5.30
2018-11-25T19:08:46.616Z,5.30
2018-11-25T19:11:15.968Z,5.30
2018-11-25T19:13:45.217Z,5.30
2018-11-25T19:16:15.221Z,5.30
2018-11-25T19:18:44.466Z,5.30
2018-11-25T19:21:13.688Z,5.40
2018-11-25T19:23:42.943Z,5.40
2018-11-25T19:26:12.183Z,5.40
2018-11-25T19:28:41.488Z,5.40
2018-11-25T19:31:10.896Z,5.40
2018-11-25T19:33:40.133Z,5.40
2018-11-25T19:36:09.429Z,5.40
2018-11-25T19:38:39.509Z,5.40
2018-11-25T19:41:09.440Z,5.40
2018-11-25T19:43:38.678Z,5.40
2018-11-25T19:46:08.669Z,5.40
2018-11-25T19:48:37.960Z,5.40
2018-11-25T19:51:07.345Z,5.40
2018-11-25T19:53:36.575Z,5.40
2018-11-25T19:56:07.199Z,5.40
2018-11-25T19:58:38.212Z,5.40
2018-11-25T20:01:08.062Z,5.40
2018-11-25T20:03:37.319Z,5.40
2018-11-25T20:06:06.591Z,5.40
2018-11-25T20:08:35.839Z,5.50
2018-11-25T20:11:05.285Z,5.50
2018-11-25T20:13:35.259Z,5.50
2018-11-25T20:16:09.836Z,5.50
2018-11-25T20:18:39.158Z,5.50
2018-11-25T20:21:13.733Z,5.50
2018-11-25T20:23:42.998Z,5.50
2018-11-25T20:26:12.324Z,5.50
2018-11-25T20:28:41.615Z,5.50
2018-11-25T20:31:11.069Z,5.50
2018-11-25T20:33:52.339Z,5.50
2018-11-25T20:36:18.302Z,5.50
2018-11-25T20:38:52.832Z,5.50
2018-11-25T20:41:22.085Z,5.50
2018-11-25T20:43:51.304Z,5.50
2018-11-25T20:46:26.761Z,5.50
2018-11-25T20:48:56.072Z,5.50
2018-11-25T20:51:30.658Z,5.50
2018-11-25T20:54:00.590Z,5.50
2018-11-25T20:56:29.938Z,5.50
2018-11-25T20:58:59.290Z,5.50
2018-11-25T21:01:29.389Z,5.50
2018-11-25T21:03:58.757Z,5.60
2018-11-25T21:06:28.315Z,5.50
2018-11-25T21:08:58.103Z,5.50
2018-11-25T21:11:27.317Z,5.50
2018-11-25T21:13:56.542Z,5.50
2018-11-25T21:16:25.890Z,5.50
2018-11-25T21:18:55.151Z,5.50
2018-11-25T21:21:26.168Z,5.50
2018-11-25T21:23:55.425Z,5.50
2018-11-25T21:26:24.674Z,5.50
2018-11-25T21:28:54.216Z,5.40
2018-11-25T21:31:24.388Z,5.50
2018-11-25T21:33:53.624Z,5.40
2018-11-25T21:36:23.122Z,5.40
2018-11-25T21:38:52.380Z,5.50
2018-11-25T21:41:21.809Z,5.50
2018-11-25T21:43:51.053Z,5.40
2018-11-25T21:46:20.336Z,5.40
2018-11-25T21:48:49.608Z,5.40
2018-11-25T21:51:19.437Z,5.40
2018-11-25T21:53:48.660Z,5.40
2018-11-25T21:56:17.892Z,5.40
2018-11-25T21:58:47.149Z,5.40
2018-11-25T22:01:16.451Z,5.40
2018-11-25T22:03:45.853Z,5.40
2018-11-25T22:06:15.131Z,5.40
2018-11-25T22:08:44.357Z,5.40
2018-11-25T22:11:13.670Z,5.40
2018-11-25T22:13:42.937Z,5.30
2018-11-25T22:16:12.256Z,5.40
2018-11-25T22:18:41.524Z,5.40
2018-11-25T22:21:10.772Z,5.30
2018-11-25T22:23:40.260Z,5.40
2018-11-25T22:26:09.538Z,5.30
2018-11-25T22:28:38.949Z,5.30
2018-11-25T22:31:08.256Z,5.30
2018-11-25T22:33:37.624Z,5.30
2018-11-25T22:36:06.905Z,5.30
2018-11-25T22:38:36.224Z,5.30
2018-11-25T22:41:05.954Z,5.20
2018-11-25T22:43:35.333Z,5.20
2018-11-25T22:46:05.072Z,5.30
2018-11-25T22:48:34.428Z,5.20
2018-11-25T22:51:03.804Z,5.20
2018-11-25T22:53:33.181Z,5.20
2018-11-25T22:56:02.452Z,5.10
2018-11-25T22:58:31.695Z,5.10
2018-11-25T23:01:00.952Z,5.10
2018-11-25T23:03:31.020Z,5.10
2018-11-25T23:06:11.269Z,5.10
2018-11-25T23:08:40.560Z,5.00
2018-11-25T23:11:09.784Z,5.00
2018-11-25T23:13:39.013Z,5.00
2018-11-25T23:16:08.278Z,5.00
2018-11-25T23:18:38.187Z,5.00
2018-11-25T23:21:07.394Z,5.00
2018-11-25T23:23:36.716Z,4.90
2018-11-25T23:26:06.185Z,5.00
2018-11-25T23:28:36.084Z,5.00
2018-11-25T23:31:05.812Z,4.90
2018-11-25T23:33:35.123Z,5.00
2018-11-25T23:36:04.398Z,5.00
2018-11-25T23:38:33.800Z,5.00
2018-11-25T23:41:03.103Z,5.00
2018-11-25T23:43:32.322Z,5.00
2018-11-25T23:46:01.549Z,5.00
2018-11-25T23:48:30.822Z,4.90
2018-11-25T23:51:00.095Z,4.90
2018-11-25T23:53:30.169Z,4.90
2018-11-25T23:55:59.382Z,4.90
2018-11-25T23:58:28.600Z,4.90
